sensor_id;sensor_type;location;lat;lon;timestamp;P1;durP1;ratioP1;P2;durP2;ratioP2
13897;SDS011;7019;50.766;4.474;2023-03-23T00:01:05;4.40;;;3.63;;
13897;SDS011;7019;50.766;4.474;2023-03-23T00:03:36;7.20;;;3.90;;
13897;SDS011;7019;50.766;4.474;2023-03-23T00:06:03;4.90;;;3.67;;
13897;SDS011;7019;50.766;4.474;2023-03-23T00:08:33;6.23;;;4.00;;
13897;SDS011;7019;50.766;4.474;2023-03-23T00:11:03;5.73;;;4.23;;
13897;SDS011;7019;50.766;4.474;2023-03-23T00:13:30;5.10;;;3.70;;
13897;SDS011;7019;50.766;4.474;2023-03-23T00:15:58;4.33;;;3.23;;
13897;SDS011;7019;50.766;4.474;2023-03-23T00:18:25;5.60;;;3.30;;
13897;SDS011;7019;50.766;4.474;2023-03-23T00:20:53;5.90;;;3.53;;
13897;SDS011;7019;50.766;4.474;2023-03-23T00:23:22;4.63;;;3.60;;
13897;SDS011;7019;50.766;4.474;2023-03-23T00:25:52;5.00;;;3.13;;
13897;SDS011;7019;50.766;4.474;2023-03-23T00:28:23;7.93;;;4.27;;
13897;SDS011;7019;50.766;4.474;2023-03-23T00:30:55;4.97;;;3.70;;
13897;SDS011;7019;50.766;4.474;2023-03-23T00:33:26;5.53;;;3.40;;
13897;SDS011;7019;50.766;4.474;2023-03-23T00:35:54;5.37;;;3.50;;
13897;SDS011;7019;50.766;4.474;2023-03-23T00:38:22;3.60;;;3.30;;
13897;SDS011;7019;50.766;4.474;2023-03-23T00:40:52;3.80;;;3.40;;
13897;SDS011;7019;50.766;4.474;2023-03-23T00:43:19;4.30;;;3.80;;
13897;SDS011;7019;50.766;4.474;2023-03-23T00:45:50;5.43;;;3.60;;
13897;SDS011;7019;50.766;4.474;2023-03-23T00:48:18;6.93;;;3.67;;
13897;SDS011;7019;50.766;4.474;2023-03-23T00:50:45;4.90;;;3.53;;
13897;SDS011;7019;50.766;4.474;2023-03-23T00:53:13;6.63;;;3.53;;
13897;SDS011;7019;50.766;4.474;2023-03-23T00:55:41;5.93;;;3.37;;
13897;SDS011;7019;50.766;4.474;2023-03-23T00:58:10;5.47;;;3.37;;
13897;SDS011;7019;50.766;4.474;2023-03-23T01:00:39;3.83;;;3.00;;
13897;SDS011;7019;50.766;4.474;2023-03-23T01:03:07;4.73;;;3.63;;
13897;SDS011;7019;50.766;4.474;2023-03-23T01:05:37;5.07;;;3.33;;
13897;SDS011;7019;50.766;4.474;2023-03-23T01:08:05;4.50;;;3.77;;
13897;SDS011;7019;50.766;4.474;2023-03-23T01:10:33;5.00;;;3.73;;
13897;SDS011;7019;50.766;4.474;2023-03-23T01:13:04;4.17;;;3.17;;
13897;SDS011;7019;50.766;4.474;2023-03-23T01:15:33;7.10;;;4.33;;
13897;SDS011;7019;50.766;4.474;2023-03-23T01:18:00;4.07;;;3.20;;
13897;SDS011;7019;50.766;4.474;2023-03-23T01:20:27;3.77;;;3.10;;
13897;SDS011;7019;50.766;4.474;2023-03-23T01:22:56;3.53;;;3.23;;
13897;SDS011;7019;50.766;4.474;2023-03-23T01:25:25;5.13;;;3.53;;
13897;SDS011;7019;50.766;4.474;2023-03-23T01:27:54;3.90;;;3.50;;
13897;SDS011;7019;50.766;4.474;2023-03-23T01:30:21;6.30;;;3.30;;
13897;SDS011;7019;50.766;4.474;2023-03-23T01:32:50;5.00;;;3.90;;
13897;SDS011;7019;50.766;4.474;2023-03-23T01:35:17;4.67;;;3.60;;
13897;SDS011;7019;50.766;4.474;2023-03-23T01:37:44;5.10;;;3.30;;
13897;SDS011;7019;50.766;4.474;2023-03-23T01:40:12;4.20;;;3.40;;
13897;SDS011;7019;50.766;4.474;2023-03-23T01:42:41;4.10;;;3.50;;
13897;SDS011;7019;50.766;4.474;2023-03-23T01:48:08;4.20;;;3.77;;
13897;SDS011;7019;50.766;4.474;2023-03-23T01:50:41;4.30;;;3.30;;
13897;SDS011;7019;50.766;4.474;2023-03-23T01:53:13;5.23;;;3.23;;
13897;SDS011;7019;50.766;4.474;2023-03-23T01:55:41;3.70;;;3.00;;
13897;SDS011;7019;50.766;4.474;2023-03-23T01:58:13;4.67;;;2.80;;
13897;SDS011;7019;50.766;4.474;2023-03-23T02:00:42;4.67;;;3.10;;
13897;SDS011;7019;50.766;4.474;2023-03-23T02:03:11;6.40;;;3.70;;
13897;SDS011;7019;50.766;4.474;2023-03-23T02:05:41;4.23;;;3.20;;
13897;SDS011;7019;50.766;4.474;2023-03-23T02:08:09;4.17;;;3.10;;
13897;SDS011;7019;50.766;4.474;2023-03-23T02:10:39;3.50;;;2.70;;
13897;SDS011;7019;50.766;4.474;2023-03-23T02:13:07;4.37;;;3.07;;
13897;SDS011;7019;50.766;4.474;2023-03-23T02:15:46;3.33;;;2.90;;
13897;SDS011;7019;50.766;4.474;2023-03-23T02:18:21;4.07;;;2.70;;
13897;SDS011;7019;50.766;4.474;2023-03-23T02:21:05;5.40;;;2.83;;
13897;SDS011;7019;50.766;4.474;2023-03-23T02:27:17;7.67;;;2.77;;
13897;SDS011;7019;50.766;4.474;2023-03-23T02:35:45;4.63;;;2.77;;
13897;SDS011;7019;50.766;4.474;2023-03-23T02:38:18;2.63;;;1.80;;
13897;SDS011;7019;50.766;4.474;2023-03-23T02:40:52;3.33;;;2.70;;
13897;SDS011;7019;50.766;4.474;2023-03-23T02:43:21;3.37;;;2.10;;
13897;SDS011;7019;50.766;4.474;2023-03-23T02:45:52;4.03;;;2.53;;
13897;SDS011;7019;50.766;4.474;2023-03-23T02:48:24;3.57;;;1.87;;
13897;SDS011;7019;50.766;4.474;2023-03-23T02:50:55;3.10;;;2.23;;
13897;SDS011;7019;50.766;4.474;2023-03-23T02:53:23;3.60;;;2.00;;
13897;SDS011;7019;50.766;4.474;2023-03-23T02:55:53;5.53;;;1.97;;
13897;SDS011;7019;50.766;4.474;2023-03-23T02:58:22;3.10;;;2.07;;
13897;SDS011;7019;50.766;4.474;2023-03-23T03:00:49;6.27;;;2.23;;
13897;SDS011;7019;50.766;4.474;2023-03-23T03:03:17;3.57;;;2.37;;
13897;SDS011;7019;50.766;4.474;2023-03-23T03:05:51;3.80;;;2.23;;
13897;SDS011;7019;50.766;4.474;2023-03-23T03:08:26;3.63;;;2.50;;
13897;SDS011;7019;50.766;4.474;2023-03-23T03:11:01;6.03;;;2.17;;
13897;SDS011;7019;50.766;4.474;2023-03-23T03:13:33;3.83;;;2.00;;
13897;SDS011;7019;50.766;4.474;2023-03-23T03:16:11;5.27;;;2.17;;
13897;SDS011;7019;50.766;4.474;2023-03-23T03:18:46;5.73;;;2.20;;
13897;SDS011;7019;50.766;4.474;2023-03-23T03:21:20;3.60;;;2.00;;
13897;SDS011;7019;50.766;4.474;2023-03-23T03:23:52;4.33;;;2.33;;
13897;SDS011;7019;50.766;4.474;2023-03-23T03:26:21;3.80;;;2.10;;
13897;SDS011;7019;50.766;4.474;2023-03-23T03:28:51;4.83;;;2.40;;
13897;SDS011;7019;50.766;4.474;2023-03-23T03:31:20;5.37;;;2.30;;
13897;SDS011;7019;50.766;4.474;2023-03-23T03:33:51;4.73;;;2.10;;
13897;SDS011;7019;50.766;4.474;2023-03-23T03:36:20;3.33;;;2.27;;
13897;SDS011;7019;50.766;4.474;2023-03-23T03:38:51;4.07;;;2.10;;
13897;SDS011;7019;50.766;4.474;2023-03-23T03:41:18;4.40;;;2.40;;
13897;SDS011;7019;50.766;4.474;2023-03-23T03:43:46;4.00;;;2.03;;
13897;SDS011;7019;50.766;4.474;2023-03-23T03:46:13;3.03;;;2.07;;
13897;SDS011;7019;50.766;4.474;2023-03-23T03:48:40;3.90;;;2.27;;
13897;SDS011;7019;50.766;4.474;2023-03-23T03:51:07;3.60;;;2.13;;
13897;SDS011;7019;50.766;4.474;2023-03-23T03:53:36;3.70;;;2.30;;
13897;SDS011;7019;50.766;4.474;2023-03-23T03:56:04;2.83;;;2.00;;
13897;SDS011;7019;50.766;4.474;2023-03-23T03:58:32;2.60;;;1.80;;
13897;SDS011;7019;50.766;4.474;2023-03-23T04:01:01;5.67;;;2.33;;
13897;SDS011;7019;50.766;4.474;2023-03-23T04:03:29;3.17;;;1.87;;
13897;SDS011;7019;50.766;4.474;2023-03-23T04:05:56;3.73;;;1.83;;
13897;SDS011;7019;50.766;4.474;2023-03-23T04:08:24;4.40;;;2.03;;
13897;SDS011;7019;50.766;4.474;2023-03-23T04:10:54;5.37;;;1.77;;
13897;SDS011;7019;50.766;4.474;2023-03-23T04:13:22;3.57;;;1.97;;
13897;SDS011;7019;50.766;4.474;2023-03-23T04:15:49;2.07;;;1.40;;
13897;SDS011;7019;50.766;4.474;2023-03-23T04:18:17;5.37;;;1.90;;
13897;SDS011;7019;50.766;4.474;2023-03-23T04:20:45;6.67;;;1.93;;
13897;SDS011;7019;50.766;4.474;2023-03-23T04:23:13;5.97;;;1.93;;
13897;SDS011;7019;50.766;4.474;2023-03-23T04:25:45;4.73;;;1.63;;
13897;SDS011;7019;50.766;4.474;2023-03-23T04:28:13;4.47;;;1.33;;
13897;SDS011;7019;50.766;4.474;2023-03-23T04:30:42;4.30;;;1.30;;
13897;SDS011;7019;50.766;4.474;2023-03-23T04:33:09;5.90;;;2.57;;
13897;SDS011;7019;50.766;4.474;2023-03-23T04:35:39;5.03;;;1.70;;
13897;SDS011;7019;50.766;4.474;2023-03-23T04:38:07;5.03;;;1.30;;
13897;SDS011;7019;50.766;4.474;2023-03-23T04:40:35;8.67;;;1.83;;
13897;SDS011;7019;50.766;4.474;2023-03-23T04:43:03;7.43;;;2.07;;
13897;SDS011;7019;50.766;4.474;2023-03-23T04:45:32;7.60;;;1.87;;
13897;SDS011;7019;50.766;4.474;2023-03-23T04:48:02;6.20;;;1.40;;
13897;SDS011;7019;50.766;4.474;2023-03-23T04:50:30;5.57;;;1.50;;
13897;SDS011;7019;50.766;4.474;2023-03-23T04:52:59;5.60;;;1.23;;
13897;SDS011;7019;50.766;4.474;2023-03-23T04:55:29;4.00;;;1.50;;
13897;SDS011;7019;50.766;4.474;2023-03-23T04:58:01;6.00;;;2.03;;
13897;SDS011;7019;50.766;4.474;2023-03-23T05:00:28;5.00;;;1.53;;
13897;SDS011;7019;50.766;4.474;2023-03-23T05:02:57;5.20;;;1.30;;
13897;SDS011;7019;50.766;4.474;2023-03-23T05:05:25;2.63;;;1.30;;
13897;SDS011;7019;50.766;4.474;2023-03-23T05:07:55;3.93;;;1.30;;
13897;SDS011;7019;50.766;4.474;2023-03-23T05:10:23;2.23;;;1.40;;
13897;SDS011;7019;50.766;4.474;2023-03-23T05:12:52;3.07;;;1.30;;
13897;SDS011;7019;50.766;4.474;2023-03-23T05:15:19;4.70;;;1.53;;
13897;SDS011;7019;50.766;4.474;2023-03-23T05:17:47;4.67;;;1.87;;
13897;SDS011;7019;50.766;4.474;2023-03-23T05:20:16;6.07;;;1.47;;
13897;SDS011;7019;50.766;4.474;2023-03-23T05:22:45;4.60;;;1.80;;
13897;SDS011;7019;50.766;4.474;2023-03-23T05:25:14;3.47;;;1.57;;
13897;SDS011;7019;50.766;4.474;2023-03-23T05:27:44;5.47;;;1.80;;
13897;SDS011;7019;50.766;4.474;2023-03-23T05:30:14;4.23;;;1.43;;
13897;SDS011;7019;50.766;4.474;2023-03-23T05:32:42;7.73;;;1.70;;
13897;SDS011;7019;50.766;4.474;2023-03-23T05:35:10;3.50;;;1.57;;
13897;SDS011;7019;50.766;4.474;2023-03-23T05:37:39;4.37;;;1.63;;
13897;SDS011;7019;50.766;4.474;2023-03-23T05:40:07;2.47;;;1.50;;
13897;SDS011;7019;50.766;4.474;2023-03-23T05:42:35;6.23;;;1.70;;
13897;SDS011;7019;50.766;4.474;2023-03-23T05:45:03;4.80;;;1.50;;
13897;SDS011;7019;50.766;4.474;2023-03-23T05:47:31;5.40;;;1.63;;
13897;SDS011;7019;50.766;4.474;2023-03-23T05:49:58;5.27;;;1.67;;
13897;SDS011;7019;50.766;4.474;2023-03-23T05:52:25;4.43;;;1.77;;
13897;SDS011;7019;50.766;4.474;2023-03-23T05:54:54;3.47;;;1.60;;
13897;SDS011;7019;50.766;4.474;2023-03-23T05:57:21;9.17;;;2.13;;
13897;SDS011;7019;50.766;4.474;2023-03-23T05:59:48;8.50;;;2.37;;
13897;SDS011;7019;50.766;4.474;2023-03-23T06:02:16;5.17;;;1.33;;
13897;SDS011;7019;50.766;4.474;2023-03-23T06:04:43;4.70;;;1.50;;
13897;SDS011;7019;50.766;4.474;2023-03-23T06:07:10;5.67;;;2.40;;
13897;SDS011;7019;50.766;4.474;2023-03-23T06:09:39;5.30;;;1.67;;
13897;SDS011;7019;50.766;4.474;2023-03-23T06:12:08;6.00;;;1.50;;
13897;SDS011;7019;50.766;4.474;2023-03-23T06:14:36;5.30;;;1.20;;
13897;SDS011;7019;50.766;4.474;2023-03-23T06:17:04;5.23;;;1.80;;
13897;SDS011;7019;50.766;4.474;2023-03-23T06:19:31;3.73;;;1.60;;
13897;SDS011;7019;50.766;4.474;2023-03-23T06:21:59;7.07;;;2.23;;
13897;SDS011;7019;50.766;4.474;2023-03-23T06:24:27;6.20;;;3.40;;
13897;SDS011;7019;50.766;4.474;2023-03-23T06:26:54;6.37;;;2.70;;
13897;SDS011;7019;50.766;4.474;2023-03-23T06:29:23;3.27;;;1.47;;
13897;SDS011;7019;50.766;4.474;2023-03-23T06:31:51;7.07;;;2.10;;
13897;SDS011;7019;50.766;4.474;2023-03-23T06:34:20;4.87;;;1.90;;
13897;SDS011;7019;50.766;4.474;2023-03-23T06:36:48;6.43;;;1.60;;
13897;SDS011;7019;50.766;4.474;2023-03-23T06:39:15;6.00;;;2.17;;
13897;SDS011;7019;50.766;4.474;2023-03-23T06:41:42;6.00;;;1.77;;
13897;SDS011;7019;50.766;4.474;2023-03-23T06:44:10;6.47;;;1.93;;
13897;SDS011;7019;50.766;4.474;2023-03-23T06:46:40;4.67;;;1.37;;
13897;SDS011;7019;50.766;4.474;2023-03-23T06:49:07;5.43;;;1.80;;
13897;SDS011;7019;50.766;4.474;2023-03-23T06:51:35;6.90;;;2.70;;
13897;SDS011;7019;50.766;4.474;2023-03-23T06:54:03;6.73;;;1.80;;
13897;SDS011;7019;50.766;4.474;2023-03-23T06:56:30;6.00;;;1.87;;
13897;SDS011;7019;50.766;4.474;2023-03-23T06:58:57;6.30;;;1.73;;
13897;SDS011;7019;50.766;4.474;2023-03-23T07:01:24;3.37;;;1.77;;
13897;SDS011;7019;50.766;4.474;2023-03-23T07:03:53;4.93;;;1.70;;
13897;SDS011;7019;50.766;4.474;2023-03-23T07:06:21;6.30;;;1.90;;
13897;SDS011;7019;50.766;4.474;2023-03-23T07:08:48;3.00;;;1.30;;
13897;SDS011;7019;50.766;4.474;2023-03-23T07:11:16;4.17;;;1.77;;
13897;SDS011;7019;50.766;4.474;2023-03-23T07:13:43;4.83;;;2.00;;
13897;SDS011;7019;50.766;4.474;2023-03-23T07:16:10;8.40;;;2.37;;
13897;SDS011;7019;50.766;4.474;2023-03-23T07:18:37;5.37;;;1.63;;
13897;SDS011;7019;50.766;4.474;2023-03-23T07:21:06;6.17;;;1.77;;
13897;SDS011;7019;50.766;4.474;2023-03-23T07:23:33;9.83;;;2.40;;
13897;SDS011;7019;50.766;4.474;2023-03-23T07:26:00;8.07;;;2.13;;
13897;SDS011;7019;50.766;4.474;2023-03-23T07:28:28;4.10;;;1.50;;
13897;SDS011;7019;50.766;4.474;2023-03-23T07:30:55;8.07;;;1.63;;
13897;SDS011;7019;50.766;4.474;2023-03-23T07:33:22;5.60;;;1.40;;
13897;SDS011;7019;50.766;4.474;2023-03-23T07:35:49;5.13;;;1.70;;
13897;SDS011;7019;50.766;4.474;2023-03-23T07:38:18;5.43;;;1.50;;
13897;SDS011;7019;50.766;4.474;2023-03-23T07:40:45;10.43;;;1.70;;
13897;SDS011;7019;50.766;4.474;2023-03-23T07:43:13;6.03;;;1.93;;
13897;SDS011;7019;50.766;4.474;2023-03-23T07:45:40;5.00;;;1.73;;
13897;SDS011;7019;50.766;4.474;2023-03-23T07:48:07;6.97;;;2.00;;
13897;SDS011;7019;50.766;4.474;2023-03-23T07:50:35;5.20;;;1.90;;
13897;SDS011;7019;50.766;4.474;2023-03-23T07:53:02;5.83;;;2.10;;
13897;SDS011;7019;50.766;4.474;2023-03-23T07:55:31;6.37;;;2.93;;
13897;SDS011;7019;50.766;4.474;2023-03-23T07:57:58;6.77;;;2.83;;
13897;SDS011;7019;50.766;4.474;2023-03-23T08:00:26;4.03;;;2.23;;
13897;SDS011;7019;50.766;4.474;2023-03-23T08:02:54;7.13;;;2.53;;
13897;SDS011;7019;50.766;4.474;2023-03-23T08:05:24;6.30;;;1.90;;
13897;SDS011;7019;50.766;4.474;2023-03-23T08:07:53;6.60;;;2.27;;
13897;SDS011;7019;50.766;4.474;2023-03-23T08:10:21;9.70;;;1.83;;
13897;SDS011;7019;50.766;4.474;2023-03-23T08:12:51;6.20;;;1.33;;
13897;SDS011;7019;50.766;4.474;2023-03-23T08:15:20;5.07;;;1.67;;
13897;SDS011;7019;50.766;4.474;2023-03-23T08:17:49;3.97;;;1.33;;
13897;SDS011;7019;50.766;4.474;2023-03-23T08:20:16;4.60;;;1.30;;
13897;SDS011;7019;50.766;4.474;2023-03-23T08:22:45;3.47;;;1.07;;
13897;SDS011;7019;50.766;4.474;2023-03-23T08:25:21;2.53;;;0.80;;
13897;SDS011;7019;50.766;4.474;2023-03-23T08:27:49;2.03;;;0.80;;
13897;SDS011;7019;50.766;4.474;2023-03-23T08:30:18;2.63;;;1.07;;
13897;SDS011;7019;50.766;4.474;2023-03-23T08:32:47;5.43;;;0.80;;
13897;SDS011;7019;50.766;4.474;2023-03-23T08:35:15;3.20;;;0.63;;
13897;SDS011;7019;50.766;4.474;2023-03-23T08:37:43;3.03;;;0.90;;
13897;SDS011;7019;50.766;4.474;2023-03-23T08:40:11;2.93;;;0.70;;
13897;SDS011;7019;50.766;4.474;2023-03-23T08:42:40;2.20;;;0.80;;
13897;SDS011;7019;50.766;4.474;2023-03-23T08:45:09;1.00;;;0.80;;
13897;SDS011;7019;50.766;4.474;2023-03-23T08:47:41;1.60;;;0.50;;
13897;SDS011;7019;50.766;4.474;2023-03-23T08:50:10;1.57;;;0.60;;
13897;SDS011;7019;50.766;4.474;2023-03-23T08:52:38;2.30;;;0.60;;
13897;SDS011;7019;50.766;4.474;2023-03-23T08:55:06;4.03;;;0.80;;
13897;SDS011;7019;50.766;4.474;2023-03-23T08:57:35;5.50;;;0.97;;
13897;SDS011;7019;50.766;4.474;2023-03-23T09:00:03;1.77;;;0.60;;
13897;SDS011;7019;50.766;4.474;2023-03-23T09:02:38;2.83;;;0.70;;
13897;SDS011;7019;50.766;4.474;2023-03-23T09:05:08;5.17;;;0.80;;
13897;SDS011;7019;50.766;4.474;2023-03-23T09:07:36;2.03;;;0.60;;
13897;SDS011;7019;50.766;4.474;2023-03-23T09:10:04;6.90;;;1.00;;
13897;SDS011;7019;50.766;4.474;2023-03-23T09:12:32;1.70;;;0.70;;
13897;SDS011;7019;50.766;4.474;2023-03-23T09:15:00;5.37;;;1.10;;
13897;SDS011;7019;50.766;4.474;2023-03-23T09:17:30;1.50;;;1.00;;
13897;SDS011;7019;50.766;4.474;2023-03-23T09:19:59;2.93;;;0.90;;
13897;SDS011;7019;50.766;4.474;2023-03-23T09:22:26;2.17;;;1.00;;
13897;SDS011;7019;50.766;4.474;2023-03-23T09:24:54;3.40;;;1.13;;
13897;SDS011;7019;50.766;4.474;2023-03-23T09:27:21;2.17;;;0.80;;
13897;SDS011;7019;50.766;4.474;2023-03-23T09:29:48;3.23;;;1.30;;
13897;SDS011;7019;50.766;4.474;2023-03-23T09:32:16;3.00;;;0.90;;
13897;SDS011;7019;50.766;4.474;2023-03-23T09:34:45;3.33;;;1.30;;
13897;SDS011;7019;50.766;4.474;2023-03-23T09:37:13;2.73;;;1.23;;
13897;SDS011;7019;50.766;4.474;2023-03-23T09:39:41;4.70;;;1.13;;
13897;SDS011;7019;50.766;4.474;2023-03-23T09:42:15;1.90;;;0.93;;
13897;SDS011;7019;50.766;4.474;2023-03-23T09:44:56;13.53;;;2.13;;
13897;SDS011;7019;50.766;4.474;2023-03-23T09:47:30;3.80;;;1.20;;
13897;SDS011;7019;50.766;4.474;2023-03-23T09:50:08;2.27;;;1.40;;
13897;SDS011;7019;50.766;4.474;2023-03-23T09:52:41;2.20;;;0.50;;
13897;SDS011;7019;50.766;4.474;2023-03-23T09:55:13;1.23;;;0.83;;
13897;SDS011;7019;50.766;4.474;2023-03-23T09:57:43;1.63;;;0.57;;
13897;SDS011;7019;50.766;4.474;2023-03-23T10:00:18;3.13;;;0.83;;
13897;SDS011;7019;50.766;4.474;2023-03-23T10:02:52;2.53;;;0.80;;
13897;SDS011;7019;50.766;4.474;2023-03-23T10:05:30;4.30;;;1.20;;
13897;SDS011;7019;50.766;4.474;2023-03-23T10:08:02;2.47;;;1.23;;
13897;SDS011;7019;50.766;4.474;2023-03-23T10:10:37;2.33;;;1.17;;
13897;SDS011;7019;50.766;4.474;2023-03-23T10:13:17;4.53;;;1.10;;
13897;SDS011;7019;50.766;4.474;2023-03-23T10:15:52;4.30;;;1.17;;
13897;SDS011;7019;50.766;4.474;2023-03-23T10:18:22;3.07;;;1.20;;
13897;SDS011;7019;50.766;4.474;2023-03-23T10:20:53;2.57;;;1.50;;
13897;SDS011;7019;50.766;4.474;2023-03-23T10:23:36;4.67;;;1.47;;
13897;SDS011;7019;50.766;4.474;2023-03-23T10:26:18;3.87;;;1.90;;
13897;SDS011;7019;50.766;4.474;2023-03-23T10:28:54;2.67;;;1.80;;
13897;SDS011;7019;50.766;4.474;2023-03-23T10:31:27;3.27;;;1.90;;
13897;SDS011;7019;50.766;4.474;2023-03-23T10:34:01;6.57;;;1.87;;
13897;SDS011;7019;50.766;4.474;2023-03-23T10:36:35;5.93;;;1.90;;
13897;SDS011;7019;50.766;4.474;2023-03-23T10:39:06;2.07;;;1.50;;
13897;SDS011;7019;50.766;4.474;2023-03-23T10:41:38;3.10;;;1.77;;
13897;SDS011;7019;50.766;4.474;2023-03-23T10:44:08;3.27;;;1.90;;
13897;SDS011;7019;50.766;4.474;2023-03-23T10:46:44;2.87;;;1.67;;
13897;SDS011;7019;50.766;4.474;2023-03-23T10:49:15;3.97;;;2.33;;
13897;SDS011;7019;50.766;4.474;2023-03-23T10:51:49;4.93;;;2.10;;
13897;SDS011;7019;50.766;4.474;2023-03-23T10:54:36;2.53;;;1.57;;
13897;SDS011;7019;50.766;4.474;2023-03-23T10:57:12;2.77;;;2.10;;
13897;SDS011;7019;50.766;4.474;2023-03-23T10:59:46;6.87;;;2.00;;
13897;SDS011;7019;50.766;4.474;2023-03-23T11:02:14;4.57;;;1.87;;
13897;SDS011;7019;50.766;4.474;2023-03-23T11:04:45;3.17;;;1.97;;
13897;SDS011;7019;50.766;4.474;2023-03-23T11:07:20;3.80;;;2.40;;
13897;SDS011;7019;50.766;4.474;2023-03-23T11:09:56;6.50;;;2.83;;
13897;SDS011;7019;50.766;4.474;2023-03-23T11:12:32;8.57;;;3.60;;
13897;SDS011;7019;50.766;4.474;2023-03-23T11:15:09;8.10;;;3.80;;
13897;SDS011;7019;50.766;4.474;2023-03-23T11:17:54;7.40;;;3.60;;
13897;SDS011;7019;50.766;4.474;2023-03-23T11:20:23;4.60;;;3.50;;
13897;SDS011;7019;50.766;4.474;2023-03-23T11:22:51;4.70;;;3.43;;
13897;SDS011;7019;50.766;4.474;2023-03-23T11:25:20;6.40;;;3.70;;
13897;SDS011;7019;50.766;4.474;2023-03-23T11:27:48;6.37;;;3.53;;
13897;SDS011;7019;50.766;4.474;2023-03-23T11:30:21;7.13;;;4.30;;
13897;SDS011;7019;50.766;4.474;2023-03-23T11:32:52;4.73;;;3.50;;
13897;SDS011;7019;50.766;4.474;2023-03-23T11:35:22;6.63;;;3.60;;
13897;SDS011;7019;50.766;4.474;2023-03-23T11:37:54;7.37;;;3.50;;
13897;SDS011;7019;50.766;4.474;2023-03-23T11:40:25;8.23;;;2.70;;
13897;SDS011;7019;50.766;4.474;2023-03-23T11:42:57;4.80;;;2.27;;
13897;SDS011;7019;50.766;4.474;2023-03-23T11:45:31;9.97;;;2.40;;
13897;SDS011;7019;50.766;4.474;2023-03-23T11:48:06;4.40;;;2.23;;
13897;SDS011;7019;50.766;4.474;2023-03-23T11:50:44;5.67;;;2.27;;
13897;SDS011;7019;50.766;4.474;2023-03-23T11:53:19;5.53;;;1.97;;
13897;SDS011;7019;50.766;4.474;2023-03-23T11:55:55;5.13;;;1.80;;
13897;SDS011;7019;50.766;4.474;2023-03-23T11:58:32;5.73;;;2.23;;
13897;SDS011;7019;50.766;4.474;2023-03-23T12:01:02;7.63;;;2.10;;
13897;SDS011;7019;50.766;4.474;2023-03-23T12:03:38;5.57;;;1.87;;
13897;SDS011;7019;50.766;4.474;2023-03-23T12:06:28;5.17;;;1.87;;
13897;SDS011;7019;50.766;4.474;2023-03-23T12:09:05;7.23;;;1.60;;
13897;SDS011;7019;50.766;4.474;2023-03-23T12:11:44;6.50;;;1.77;;
13897;SDS011;7019;50.766;4.474;2023-03-23T12:14:20;5.23;;;1.67;;
13897;SDS011;7019;50.766;4.474;2023-03-23T12:16:59;6.10;;;2.13;;
13897;SDS011;7019;50.766;4.474;2023-03-23T12:19:38;5.77;;;2.00;;
13897;SDS011;7019;50.766;4.474;2023-03-23T12:22:17;4.53;;;2.20;;
13897;SDS011;7019;50.766;4.474;2023-03-23T12:24:59;6.50;;;1.90;;
13897;SDS011;7019;50.766;4.474;2023-03-23T12:27:44;5.27;;;2.27;;
13897;SDS011;7019;50.766;4.474;2023-03-23T12:30:23;5.80;;;2.23;;
13897;SDS011;7019;50.766;4.474;2023-03-23T12:33:05;6.10;;;2.07;;
13897;SDS011;7019;50.766;4.474;2023-03-23T12:35:44;6.07;;;2.30;;
13897;SDS011;7019;50.766;4.474;2023-03-23T12:38:23;6.00;;;2.00;;
13897;SDS011;7019;50.766;4.474;2023-03-23T12:41:12;8.97;;;2.23;;
13897;SDS011;7019;50.766;4.474;2023-03-23T12:43:47;4.33;;;2.13;;
13897;SDS011;7019;50.766;4.474;2023-03-23T12:46:36;6.73;;;2.67;;
13897;SDS011;7019;50.766;4.474;2023-03-23T12:49:17;9.43;;;3.77;;
13897;SDS011;7019;50.766;4.474;2023-03-23T12:51:49;9.03;;;3.57;;
13897;SDS011;7019;50.766;4.474;2023-03-23T12:54:21;6.80;;;2.87;;
13897;SDS011;7019;50.766;4.474;2023-03-23T12:56:54;10.67;;;3.13;;
13897;SDS011;7019;50.766;4.474;2023-03-23T12:59:29;6.17;;;2.63;;
13897;SDS011;7019;50.766;4.474;2023-03-23T13:02:05;6.77;;;3.07;;
13897;SDS011;7019;50.766;4.474;2023-03-23T13:04:40;6.50;;;3.27;;
13897;SDS011;7019;50.766;4.474;2023-03-23T13:07:13;8.43;;;3.20;;
13897;SDS011;7019;50.766;4.474;2023-03-23T13:09:46;6.60;;;2.83;;
13897;SDS011;7019;50.766;4.474;2023-03-23T13:12:18;6.30;;;2.70;;
13897;SDS011;7019;50.766;4.474;2023-03-23T13:14:50;8.40;;;3.57;;
13897;SDS011;7019;50.766;4.474;2023-03-23T13:17:28;8.07;;;3.57;;
13897;SDS011;7019;50.766;4.474;2023-03-23T13:20:13;8.00;;;2.83;;
13897;SDS011;7019;50.766;4.474;2023-03-23T13:22:50;10.90;;;2.60;;
13897;SDS011;7019;50.766;4.474;2023-03-23T13:25:24;10.57;;;3.53;;
13897;SDS011;7019;50.766;4.474;2023-03-23T13:28:02;10.03;;;2.87;;
13897;SDS011;7019;50.766;4.474;2023-03-23T13:30:31;5.77;;;2.47;;
13897;SDS011;7019;50.766;4.474;2023-03-23T13:33:02;7.13;;;3.10;;
13897;SDS011;7019;50.766;4.474;2023-03-23T13:35:33;9.83;;;2.77;;
13897;SDS011;7019;50.766;4.474;2023-03-23T13:38:10;7.53;;;2.57;;
13897;SDS011;7019;50.766;4.474;2023-03-23T13:40:43;7.40;;;2.73;;
13897;SDS011;7019;50.766;4.474;2023-03-23T13:43:11;6.73;;;2.87;;
13897;SDS011;7019;50.766;4.474;2023-03-23T13:45:44;5.17;;;2.50;;
13897;SDS011;7019;50.766;4.474;2023-03-23T13:48:19;7.67;;;2.57;;
13897;SDS011;7019;50.766;4.474;2023-03-23T13:50:50;7.30;;;2.40;;
13897;SDS011;7019;50.766;4.474;2023-03-23T13:53:24;7.27;;;2.57;;
13897;SDS011;7019;50.766;4.474;2023-03-23T13:56:05;7.00;;;2.50;;
13897;SDS011;7019;50.766;4.474;2023-03-23T13:58:45;8.93;;;2.90;;
13897;SDS011;7019;50.766;4.474;2023-03-23T14:01:16;7.63;;;2.30;;
13897;SDS011;7019;50.766;4.474;2023-03-23T14:03:46;10.73;;;2.13;;
13897;SDS011;7019;50.766;4.474;2023-03-23T14:06:16;6.57;;;2.13;;
13897;SDS011;7019;50.766;4.474;2023-03-23T14:08:47;6.33;;;2.07;;
13897;SDS011;7019;50.766;4.474;2023-03-23T14:11:19;8.20;;;2.40;;
13897;SDS011;7019;50.766;4.474;2023-03-23T14:13:51;5.17;;;2.50;;
13897;SDS011;7019;50.766;4.474;2023-03-23T14:16:35;5.70;;;2.40;;
13897;SDS011;7019;50.766;4.474;2023-03-23T14:19:04;7.57;;;2.87;;
13897;SDS011;7019;50.766;4.474;2023-03-23T14:21:42;7.50;;;2.33;;
13897;SDS011;7019;50.766;4.474;2023-03-23T14:24:18;10.67;;;2.47;;
13897;SDS011;7019;50.766;4.474;2023-03-23T14:26:49;6.53;;;2.30;;
13897;SDS011;7019;50.766;4.474;2023-03-23T14:29:18;8.13;;;2.10;;
13897;SDS011;7019;50.766;4.474;2023-03-23T14:31:53;6.27;;;2.17;;
13897;SDS011;7019;50.766;4.474;2023-03-23T14:34:23;4.77;;;2.30;;
13897;SDS011;7019;50.766;4.474;2023-03-23T14:36:52;10.07;;;3.17;;
13897;SDS011;7019;50.766;4.474;2023-03-23T14:39:22;6.70;;;2.30;;
13897;SDS011;7019;50.766;4.474;2023-03-23T14:41:52;6.03;;;2.63;;
13897;SDS011;7019;50.766;4.474;2023-03-23T14:44:21;7.70;;;2.70;;
13897;SDS011;7019;50.766;4.474;2023-03-23T14:46:51;5.33;;;1.47;;
13897;SDS011;7019;50.766;4.474;2023-03-23T14:49:23;7.17;;;2.23;;
13897;SDS011;7019;50.766;4.474;2023-03-23T14:51:55;8.77;;;1.70;;
13897;SDS011;7019;50.766;4.474;2023-03-23T14:54:24;4.93;;;2.30;;
13897;SDS011;7019;50.766;4.474;2023-03-23T14:56:52;7.40;;;2.57;;
13897;SDS011;7019;50.766;4.474;2023-03-23T14:59:20;6.03;;;1.97;;
13897;SDS011;7019;50.766;4.474;2023-03-23T15:01:48;5.57;;;1.80;;
13897;SDS011;7019;50.766;4.474;2023-03-23T15:04:19;6.50;;;2.10;;
13897;SDS011;7019;50.766;4.474;2023-03-23T15:06:48;5.93;;;2.30;;
13897;SDS011;7019;50.766;4.474;2023-03-23T15:09:21;5.23;;;1.70;;
13897;SDS011;7019;50.766;4.474;2023-03-23T15:11:51;10.07;;;2.23;;
13897;SDS011;7019;50.766;4.474;2023-03-23T15:14:22;10.90;;;2.43;;
13897;SDS011;7019;50.766;4.474;2023-03-23T15:16:53;9.43;;;2.60;;
13897;SDS011;7019;50.766;4.474;2023-03-23T15:19:23;5.93;;;2.10;;
13897;SDS011;7019;50.766;4.474;2023-03-23T15:21:53;8.87;;;2.67;;
13897;SDS011;7019;50.766;4.474;2023-03-23T15:24:26;10.80;;;2.37;;
13897;SDS011;7019;50.766;4.474;2023-03-23T15:27:07;6.80;;;2.67;;
13897;SDS011;7019;50.766;4.474;2023-03-23T15:29:49;6.53;;;2.37;;
13897;SDS011;7019;50.766;4.474;2023-03-23T15:32:22;8.37;;;3.03;;
13897;SDS011;7019;50.766;4.474;2023-03-23T15:34:51;8.43;;;2.23;;